sensor_id;sensor_type;location;lat;lon;timestamp;pressure;altitude;pressure_sealevel;temperature;humidity
69247;BME280;56358;56.328;43.992;2023-12-20T00:00:27;98574.88;;;1.98;92.55
69247;BME280;56358;56.328;43.992;2023-12-20T00:02:28;98501.91;;;1.60;92.36
69247;BME280;56358;56.328;43.992;2023-12-20T00:04:29;98561.56;;;1.99;92.25
69247;BME280;56358;56.328;43.992;2023-12-20T00:06:30;98560.84;;;1.97;92.20
69247;BME280;56358;56.328;43.992;2023-12-20T00:08:31;98578.28;;;2.00;92.07
69247;BME280;56358;56.328;43.992;2023-12-20T00:10:32;98539.31;;;1.91;92.43
69247;BME280;56358;56.328;43.992;2023-12-20T00:12:32;98573.94;;;1.99;92.37
69247;BME280;56358;56.328;43.992;2023-12-20T00:14:33;98565.19;;;1.98;92.35
69247;BME280;56358;56.328;43.992;2023-12-20T00:16:34;98570.47;;;1.98;92.08
69247;BME280;56358;56.328;43.992;2023-12-20T00:18:35;98575.41;;;2.03;91.98
69247;BME280;56358;56.328;43.992;2023-12-20T00:20:35;98576.47;;;2.00;92.14
69247;BME280;56358;56.328;43.992;2023-12-20T00:22:36;98590.31;;;2.04;91.99
69247;BME280;56358;56.328;43.992;2023-12-20T00:24:37;98587.56;;;2.06;92.24
69247;BME280;56358;56.328;43.992;2023-12-20T00:26:38;98577.22;;;2.03;91.82
69247;BME280;56358;56.328;43.992;2023-12-20T00:28:38;98537.25;;;1.70;92.03
69247;BME280;56358;56.328;43.992;2023-12-20T00:30:39;98593.50;;;1.96;92.09
69247;BME280;56358;56.328;43.992;2023-12-20T00:32:40;98587.03;;;2.00;92.11
69247;BME280;56358;56.328;43.992;2023-12-20T00:34:46;98592.22;;;2.02;92.39
69247;BME280;56358;56.328;43.992;2023-12-20T00:36:47;98599.31;;;2.01;92.33
69247;BME280;56358;56.328;43.992;2023-12-20T00:38:48;98587.91;;;2.01;92.37
69247;BME280;56358;56.328;43.992;2023-12-20T00:40:48;98592.44;;;1.99;92.46
69247;BME280;56358;56.328;43.992;2023-12-20T00:42:50;98577.88;;;1.93;92.41
69247;BME280;56358;56.328;43.992;2023-12-20T00:44:51;98592.56;;;1.97;92.63
69247;BME280;56358;56.328;43.992;2023-12-20T00:46:51;98540.34;;;1.64;92.76
69247;BME280;56358;56.328;43.992;2023-12-20T00:48:52;98602.63;;;1.92;92.54
69247;BME280;56358;56.328;43.992;2023-12-20T00:50:53;98607.47;;;1.98;92.66
69247;BME280;56358;56.328;43.992;2023-12-20T00:52:53;98614.66;;;1.96;92.65
69247;BME280;56358;56.328;43.992;2023-12-20T00:54:55;98616.13;;;2.00;92.60
69247;BME280;56358;56.328;43.992;2023-12-20T00:56:56;98612.63;;;2.00;92.43
69247;BME280;56358;56.328;43.992;2023-12-20T00:58:56;98614.41;;;1.99;92.54
69247;BME280;56358;56.328;43.992;2023-12-20T01:00:57;98590.81;;;1.85;92.74
69247;BME280;56358;56.328;43.992;2023-12-20T01:02:58;98616.88;;;2.03;92.50
69247;BME280;56358;56.328;43.992;2023-12-20T01:04:59;98594.91;;;1.89;92.71
69247;BME280;56358;56.328;43.992;2023-12-20T01:07:00;98618.63;;;2.02;92.68
69247;BME280;56358;56.328;43.992;2023-12-20T01:09:00;98620.56;;;2.00;92.52
69247;BME280;56358;56.328;43.992;2023-12-20T01:11:04;98622.16;;;2.03;92.76
69247;BME280;56358;56.328;43.992;2023-12-20T01:13:05;98612.13;;;1.95;92.26
69247;BME280;56358;56.328;43.992;2023-12-20T01:15:05;98618.53;;;2.04;92.27
69247;BME280;56358;56.328;43.992;2023-12-20T01:17:06;98617.47;;;2.06;91.95
69247;BME280;56358;56.328;43.992;2023-12-20T01:19:07;98624.69;;;2.04;92.15
69247;BME280;56358;56.328;43.992;2023-12-20T01:21:08;98629.84;;;2.06;91.97
69247;BME280;56358;56.328;43.992;2023-12-20T01:23:08;98574.03;;;1.73;92.14
69247;BME280;56358;56.328;43.992;2023-12-20T01:25:09;98625.84;;;2.00;92.25
69247;BME280;56358;56.328;43.992;2023-12-20T01:27:10;98620.22;;;2.05;92.09
69247;BME280;56358;56.328;43.992;2023-12-20T01:29:10;98549.97;;;1.65;92.09
69247;BME280;56358;56.328;43.992;2023-12-20T01:31:11;98559.47;;;1.67;92.26
69247;BME280;56358;56.328;43.992;2023-12-20T01:33:12;98576.56;;;1.75;92.11
69247;BME280;56358;56.328;43.992;2023-12-20T01:35:13;98615.28;;;2.00;92.15
69247;BME280;56358;56.328;43.992;2023-12-20T01:37:14;98482.59;;;1.22;91.84
69247;BME280;56358;56.328;43.992;2023-12-20T01:39:14;98635.75;;;2.09;91.96
69247;BME280;56358;56.328;43.992;2023-12-20T01:41:15;98622.75;;;2.06;91.96
69247;BME280;56358;56.328;43.992;2023-12-20T01:43:16;98631.19;;;2.11;91.86
69247;BME280;56358;56.328;43.992;2023-12-20T01:45:16;98629.28;;;2.13;91.83
69247;BME280;56358;56.328;43.992;2023-12-20T01:47:17;98630.88;;;2.16;91.75
69247;BME280;56358;56.328;43.992;2023-12-20T01:49:18;98645.28;;;2.12;91.86
69247;BME280;56358;56.328;43.992;2023-12-20T01:51:19;98633.72;;;2.13;91.81
69247;BME280;56358;56.328;43.992;2023-12-20T01:53:21;98607.91;;;1.92;91.77
69247;BME280;56358;56.328;43.992;2023-12-20T01:55:25;98648.41;;;2.17;92.13
69247;BME280;56358;56.328;43.992;2023-12-20T01:57:27;98499.44;;;1.32;91.36
69247;BME280;56358;56.328;43.992;2023-12-20T01:59:28;98645.66;;;2.18;91.26
69247;BME280;56358;56.328;43.992;2023-12-20T02:01:30;98645.88;;;2.15;91.45
69247;BME280;56358;56.328;43.992;2023-12-20T02:03:31;98642.63;;;2.12;91.46
69247;BME280;56358;56.328;43.992;2023-12-20T02:05:33;98649.38;;;2.16;91.22
69247;BME280;56358;56.328;43.992;2023-12-20T02:07:34;98579.94;;;1.77;91.38
69247;BME280;56358;56.328;43.992;2023-12-20T02:09:35;98660.69;;;2.18;91.21
69247;BME280;56358;56.328;43.992;2023-12-20T02:11:36;98649.25;;;2.17;91.30
69247;BME280;56358;56.328;43.992;2023-12-20T02:13:36;98608.00;;;1.91;91.14
69247;BME280;56358;56.328;43.992;2023-12-20T02:15:38;98650.97;;;2.18;91.32
69247;BME280;56358;56.328;43.992;2023-12-20T02:17:39;98587.66;;;1.80;91.16
69247;BME280;56358;56.328;43.992;2023-12-20T02:19:40;98662.25;;;2.21;91.28
69247;BME280;56358;56.328;43.992;2023-12-20T02:21:41;98663.13;;;2.21;91.02
69247;BME280;56358;56.328;43.992;2023-12-20T02:23:42;98655.72;;;2.13;90.96
69247;BME280;56358;56.328;43.992;2023-12-20T02:25:42;98649.97;;;2.20;91.01
69247;BME280;56358;56.328;43.992;2023-12-20T02:27:44;98653.50;;;2.20;91.05
69247;BME280;56358;56.328;43.992;2023-12-20T02:29:47;98662.38;;;2.19;91.10
69247;BME280;56358;56.328;43.992;2023-12-20T02:31:47;98654.44;;;2.19;90.85
69247;BME280;56358;56.328;43.992;2023-12-20T02:33:48;98654.56;;;2.17;90.85
69247;BME280;56358;56.328;43.992;2023-12-20T02:35:49;98585.00;;;1.80;90.72
69247;BME280;56358;56.328;43.992;2023-12-20T02:37:50;98649.97;;;2.20;90.63
69247;BME280;56358;56.328;43.992;2023-12-20T02:39:51;98627.09;;;2.07;91.13
69247;BME280;56358;56.328;43.992;2023-12-20T02:41:51;98642.91;;;2.20;90.73
69247;BME280;56358;56.328;43.992;2023-12-20T02:43:52;98656.25;;;2.18;90.80
69247;BME280;56358;56.328;43.992;2023-12-20T02:45:53;98658.97;;;2.17;90.98
69247;BME280;56358;56.328;43.992;2023-12-20T02:47:54;98657.19;;;2.17;90.63
69247;BME280;56358;56.328;43.992;2023-12-20T02:49:54;98651.91;;;2.17;90.85
69247;BME280;56358;56.328;43.992;2023-12-20T02:51:55;98635.13;;;2.06;90.89
69247;BME280;56358;56.328;43.992;2023-12-20T02:53:56;98651.78;;;2.19;90.56
69247;BME280;56358;56.328;43.992;2023-12-20T02:55:57;98651.03;;;2.17;90.69
69247;BME280;56358;56.328;43.992;2023-12-20T02:57:58;98641.66;;;2.13;90.87
69247;BME280;56358;56.328;43.992;2023-12-20T02:59:59;98647.56;;;2.16;91.07
69247;BME280;56358;56.328;43.992;2023-12-20T03:02:00;98657.31;;;2.16;90.55
69247;BME280;56358;56.328;43.992;2023-12-20T03:04:01;98654.56;;;2.17;91.05
69247;BME280;56358;56.328;43.992;2023-12-20T03:06:02;98657.91;;;2.20;91.13
69247;BME280;56358;56.328;43.992;2023-12-20T03:08:02;98646.94;;;2.13;91.04
69247;BME280;56358;56.328;43.992;2023-12-20T03:10:04;98647.44;;;2.18;90.85
69247;BME280;56358;56.328;43.992;2023-12-20T03:12:05;98590.72;;;1.74;90.83
69247;BME280;56358;56.328;43.992;2023-12-20T03:14:06;98656.28;;;2.06;90.88
69247;BME280;56358;56.328;43.992;2023-12-20T03:16:13;98631.66;;;2.05;90.80
69247;BME280;56358;56.328;43.992;2023-12-20T03:18:14;98653.22;;;2.12;90.69
69247;BME280;56358;56.328;43.992;2023-12-20T03:20:14;98652.34;;;2.11;90.93
69247;BME280;56358;56.328;43.992;2023-12-20T03:22:15;98664.25;;;2.17;90.72
69247;BME280;56358;56.328;43.992;2023-12-20T03:24:16;98652.47;;;2.10;90.79
69247;BME280;56358;56.328;43.992;2023-12-20T03:26:16;98656.34;;;2.17;90.87
69247;BME280;56358;56.328;43.992;2023-12-20T03:28:17;98670.44;;;2.05;91.30
69247;BME280;56358;56.328;43.992;2023-12-20T03:30:19;98652.22;;;2.13;90.93
69247;BME280;56358;56.328;43.992;2023-12-20T03:32:20;98659.09;;;2.15;91.17
69247;BME280;56358;56.328;43.992;2023-12-20T03:34:20;98637.78;;;2.06;91.00
69247;BME280;56358;56.328;43.992;2023-12-20T03:36:21;98597.47;;;1.78;90.78
69247;BME280;56358;56.328;43.992;2023-12-20T03:38:22;98667.88;;;2.16;90.81
69247;BME280;56358;56.328;43.992;2023-12-20T03:40:25;98663.66;;;2.13;90.74
69247;BME280;56358;56.328;43.992;2023-12-20T03:42:26;98659.97;;;2.16;90.65
69247;BME280;56358;56.328;43.992;2023-12-20T03:44:26;98635.13;;;2.06;90.63
69247;BME280;56358;56.328;43.992;2023-12-20T03:46:27;98613.63;;;1.86;90.60
69247;BME280;56358;56.328;43.992;2023-12-20T03:48:28;98669.56;;;2.17;90.38
69247;BME280;56358;56.328;43.992;2023-12-20T03:50:29;98648.88;;;2.11;90.25
69247;BME280;56358;56.328;43.992;2023-12-20T03:52:29;98671.06;;;2.21;89.96
69247;BME280;56358;56.328;43.992;2023-12-20T03:54:30;98657.19;;;2.17;90.11
69247;BME280;56358;56.328;43.992;2023-12-20T03:56:31;98593.66;;;1.82;89.98
69247;BME280;56358;56.328;43.992;2023-12-20T03:58:32;98629.84;;;2.06;90.02
69247;BME280;56358;56.328;43.992;2023-12-20T04:00:32;98663.13;;;2.21;90.11
69247;BME280;56358;56.328;43.992;2023-12-20T04:02:33;98662.25;;;2.21;89.97
69247;BME280;56358;56.328;43.992;2023-12-20T04:04:34;98643.75;;;2.21;89.77
69247;BME280;56358;56.328;43.992;2023-12-20T04:06:35;98654.31;;;2.21;89.76
69247;BME280;56358;56.328;43.992;2023-12-20T04:08:36;98597.03;;;1.84;89.53
69247;BME280;56358;56.328;43.992;2023-12-20T04:10:36;98652.84;;;2.16;89.47
69247;BME280;56358;56.328;43.992;2023-12-20T04:12:37;98629.41;;;2.12;89.42
69247;BME280;56358;56.328;43.992;2023-12-20T04:14:38;98642.78;;;2.22;89.30
69247;BME280;56358;56.328;43.992;2023-12-20T04:16:39;98584.66;;;1.84;89.09
69247;BME280;56358;56.328;43.992;2023-12-20T04:18:39;98664.78;;;2.22;89.10
69247;BME280;56358;56.328;43.992;2023-12-20T04:20:40;98654.19;;;2.22;88.77
69247;BME280;56358;56.328;43.992;2023-12-20T04:22:41;98650.84;;;2.20;89.08
69247;BME280;56358;56.328;43.992;2023-12-20T04:24:43;98643.47;;;2.12;88.92
69247;BME280;56358;56.328;43.992;2023-12-20T04:26:43;98646.00;;;2.14;88.96
69247;BME280;56358;56.328;43.992;2023-12-20T04:28:44;98646.75;;;2.16;89.00
69247;BME280;56358;56.328;43.992;2023-12-20T04:30:45;98653.91;;;2.14;88.83
69247;BME280;56358;56.328;43.992;2023-12-20T04:32:45;98657.50;;;2.13;89.13
69247;BME280;56358;56.328;43.992;2023-12-20T04:34:46;98539.16;;;1.44;88.77
69247;BME280;56358;56.328;43.992;2023-12-20T04:36:47;98598.94;;;1.82;88.61
69247;BME280;56358;56.328;43.992;2023-12-20T04:38:48;98635.69;;;1.98;88.06
69247;BME280;56358;56.328;43.992;2023-12-20T04:40:48;98654.66;;;2.16;87.80
69247;BME280;56358;56.328;43.992;2023-12-20T04:42:49;98607.63;;;1.84;87.60
69247;BME280;56358;56.328;43.992;2023-12-20T04:44:50;98664.50;;;2.14;87.08
69247;BME280;56358;56.328;43.992;2023-12-20T04:46:51;98661.13;;;2.12;87.49
69247;BME280;56358;56.328;43.992;2023-12-20T04:48:51;98646.06;;;2.01;87.56
69247;BME280;56358;56.328;43.992;2023-12-20T04:50:52;98624.94;;;1.88;87.70
69247;BME280;56358;56.328;43.992;2023-12-20T04:52:53;98662.91;;;2.11;87.64
69247;BME280;56358;56.328;43.992;2023-12-20T04:54:53;98607.09;;;1.79;87.28
69247;BME280;56358;56.328;43.992;2023-12-20T04:56:54;98681.94;;;2.16;87.56
69247;BME280;56358;56.328;43.992;2023-12-20T04:58:55;98682.69;;;2.18;87.73
69247;BME280;56358;56.328;43.992;2023-12-20T05:00:56;98560.03;;;1.47;87.13
69247;BME280;56358;56.328;43.992;2023-12-20T05:02:57;98702.78;;;2.21;87.26
69247;BME280;56358;56.328;43.992;2023-12-20T05:04:57;98682.78;;;2.17;87.66
69247;BME280;56358;56.328;43.992;2023-12-20T05:06:58;98605.09;;;1.70;87.80
69247;BME280;56358;56.328;43.992;2023-12-20T05:08:59;98700.03;;;2.23;87.63
69247;BME280;56358;56.328;43.992;2023-12-20T05:11:00;98693.56;;;2.14;88.13
69247;BME280;56358;56.328;43.992;2023-12-20T05:13:00;98686.28;;;2.17;87.92
69247;BME280;56358;56.328;43.992;2023-12-20T05:15:01;98695.78;;;2.20;88.21
69247;BME280;56358;56.328;43.992;2023-12-20T05:17:06;98707.84;;;2.24;88.00
69247;BME280;56358;56.328;43.992;2023-12-20T05:19:07;98690.72;;;2.17;88.41
69247;BME280;56358;56.328;43.992;2023-12-20T05:21:07;98704.00;;;2.28;88.24
69247;BME280;56358;56.328;43.992;2023-12-20T05:23:08;98695.56;;;2.23;88.40
69247;BME280;56358;56.328;43.992;2023-12-20T05:25:09;98671.59;;;2.13;88.55
69247;BME280;56358;56.328;43.992;2023-12-20T05:27:09;98642.13;;;1.94;88.75
69247;BME280;56358;56.328;43.992;2023-12-20T05:29:11;98685.09;;;2.22;88.63
69247;BME280;56358;56.328;43.992;2023-12-20T05:31:12;98683.28;;;2.22;88.85
69247;BME280;56358;56.328;43.992;2023-12-20T05:33:13;98679.28;;;2.16;89.15
69247;BME280;56358;56.328;43.992;2023-12-20T05:35:13;98680.13;;;2.17;89.38
69247;BME280;56358;56.328;43.992;2023-12-20T05:37:14;98624.84;;;1.77;89.12
69247;BME280;56358;56.328;43.992;2023-12-20T05:39:15;98689.88;;;2.16;89.33
69247;BME280;56358;56.328;43.992;2023-12-20T05:41:15;98689.75;;;2.18;89.20
69247;BME280;56358;56.328;43.992;2023-12-20T05:43:16;98692.50;;;2.16;89.18
69247;BME280;56358;56.328;43.992;2023-12-20T05:45:17;98714.63;;;2.15;89.10
69247;BME280;56358;56.328;43.992;2023-12-20T05:47:18;98690.53;;;2.07;89.15
69247;BME280;56358;56.328;43.992;2023-12-20T05:49:18;98692.84;;;2.12;89.36
69247;BME280;56358;56.328;43.992;2023-12-20T05:51:19;98695.03;;;2.18;89.48
69247;BME280;56358;56.328;43.992;2023-12-20T05:53:20;98712.59;;;2.19;89.39
69247;BME280;56358;56.328;43.992;2023-12-20T05:55:20;98708.91;;;2.22;89.21
69247;BME280;56358;56.328;43.992;2023-12-20T05:57:21;98619.47;;;1.78;88.67
69247;BME280;56358;56.328;43.992;2023-12-20T05:59:23;98706.13;;;2.23;88.55
69247;BME280;56358;56.328;43.992;2023-12-20T06:01:24;98703.25;;;2.26;88.72
69247;BME280;56358;56.328;43.992;2023-12-20T06:03:25;98700.97;;;2.22;87.90
69247;BME280;56358;56.328;43.992;2023-12-20T06:05:25;98686.28;;;2.17;87.88
69247;BME280;56358;56.328;43.992;2023-12-20T06:07:26;98697.53;;;2.32;87.65
69247;BME280;56358;56.328;43.992;2023-12-20T06:09:27;98692.25;;;2.32;87.44
69247;BME280;56358;56.328;43.992;2023-12-20T06:11:28;98696.72;;;2.32;87.71
69247;BME280;56358;56.328;43.992;2023-12-20T06:13:28;98691.63;;;2.29;87.49
69247;BME280;56358;56.328;43.992;2023-12-20T06:15:29;98631.91;;;1.89;87.24
69247;BME280;56358;56.328;43.992;2023-12-20T06:17:30;98716.22;;;2.42;87.20
69247;BME280;56358;56.328;43.992;2023-12-20T06:19:31;98722.38;;;2.43;87.35
69247;BME280;56358;56.328;43.992;2023-12-20T06:21:32;98725.47;;;2.37;86.89
69247;BME280;56358;56.328;43.992;2023-12-20T06:23:33;98724.91;;;2.44;87.12
69247;BME280;56358;56.328;43.992;2023-12-20T06:25:33;98668.09;;;2.13;87.19
69247;BME280;56358;56.328;43.992;2023-12-20T06:27:34;98727.31;;;2.47;86.61
69247;BME280;56358;56.328;43.992;2023-12-20T06:29:35;98720.44;;;2.45;86.86
69247;BME280;56358;56.328;43.992;2023-12-20T06:31:36;98728.50;;;2.43;86.77
69247;BME280;56358;56.328;43.992;2023-12-20T06:33:37;98730.19;;;2.44;86.99
69247;BME280;56358;56.328;43.992;2023-12-20T06:35:41;98718.56;;;2.47;86.73
69247;BME280;56358;56.328;43.992;2023-12-20T06:37:41;98714.31;;;2.44;86.71
69247;BME280;56358;56.328;43.992;2023-12-20T06:39:45;98725.97;;;2.42;86.53
69247;BME280;56358;56.328;43.992;2023-12-20T06:41:46;98652.28;;;2.00;86.40
69247;BME280;56358;56.328;43.992;2023-12-20T06:43:47;98718.81;;;2.31;86.50
69247;BME280;56358;56.328;43.992;2023-12-20T06:45:48;98740.78;;;2.44;86.70
69247;BME280;56358;56.328;43.992;2023-12-20T06:47:48;98723.56;;;2.39;86.50
69247;BME280;56358;56.328;43.992;2023-12-20T06:49:49;98729.97;;;2.47;86.12
69247;BME280;56358;56.328;43.992;2023-12-20T06:51:50;98722.91;;;2.48;86.24
69247;BME280;56358;56.328;43.992;2023-12-20T06:53:51;98735.03;;;2.50;86.06
69247;BME280;56358;56.328;43.992;2023-12-20T06:55:53;98664.72;;;2.11;86.15
69247;BME280;56358;56.328;43.992;2023-12-20T06:57:54;98724.91;;;2.44;85.93
69247;BME280;56358;56.328;43.992;2023-12-20T06:59:54;98738.41;;;2.53;85.61
69247;BME280;56358;56.328;43.992;2023-12-20T07:01:55;98741.41;;;2.48;85.62
69247;BME280;56358;56.328;43.992;2023-12-20T07:03:56;98728.38;;;2.45;85.51
69247;BME280;56358;56.328;43.992;2023-12-20T07:05:56;98731.53;;;2.50;85.49
69247;BME280;56358;56.328;43.992;2023-12-20T07:07:57;98729.53;;;2.54;85.40
69247;BME280;56358;56.328;43.992;2023-12-20T07:09:58;98688.56;;;2.22;85.47
69247;BME280;56358;56.328;43.992;2023-12-20T07:11:59;98729.44;;;2.42;85.34
69247;BME280;56358;56.328;43.992;2023-12-20T07:14:00;98737.34;;;2.55;85.06
69247;BME280;56358;56.328;43.992;2023-12-20T07:16:01;98654.28;;;2.09;85.10
69247;BME280;56358;56.328;43.992;2023-12-20T07:18:02;98736.16;;;2.59;84.85
69247;BME280;56358;56.328;43.992;2023-12-20T07:20:04;98723.06;;;2.58;85.03
69247;BME280;56358;56.328;43.992;2023-12-20T07:22:06;98725.06;;;2.54;85.02
69247;BME280;56358;56.328;43.992;2023-12-20T07:24:07;98702.88;;;2.44;84.59
69247;BME280;56358;56.328;43.992;2023-12-20T07:26:08;98749.63;;;2.56;84.65
69247;BME280;56358;56.328;43.992;2023-12-20T07:28:08;98706.00;;;2.38;84.07
69247;BME280;56358;56.328;43.992;2023-12-20T07:30:10;98739.75;;;2.58;83.57
69247;BME280;56358;56.328;43.992;2023-12-20T07:32:10;98749.50;;;2.58;83.77
69247;BME280;56358;56.328;43.992;2023-12-20T07:34:11;98754.06;;;2.56;83.98
69247;BME280;56358;56.328;43.992;2023-12-20T07:36:12;98747.69;;;2.58;83.90
69247;BME280;56358;56.328;43.992;2023-12-20T07:38:13;98724.69;;;2.47;84.17
69247;BME280;56358;56.328;43.992;2023-12-20T07:40:14;98718.75;;;2.44;83.83
69247;BME280;56358;56.328;43.992;2023-12-20T07:42:19;98735.44;;;2.57;83.67
69247;BME280;56358;56.328;43.992;2023-12-20T07:44:19;98736.53;;;2.55;83.99
69247;BME280;56358;56.328;43.992;2023-12-20T07:46:20;98726.59;;;2.45;83.91
69247;BME280;56358;56.328;43.992;2023-12-20T07:48:23;98733.13;;;2.53;83.77
69247;BME280;56358;56.328;43.992;2023-12-20T07:50:23;98723.22;;;2.43;83.71
69247;BME280;56358;56.328;43.992;2023-12-20T07:52:24;98741.81;;;2.55;83.55
69247;BME280;56358;56.328;43.992;2023-12-20T07:54:26;98743.28;;;2.59;83.41
69247;BME280;56358;56.328;43.992;2023-12-20T07:56:27;98685.34;;;2.18;82.74
69247;BME280;56358;56.328;43.992;2023-12-20T07:58:28;98690.03;;;2.26;82.80
69247;BME280;56358;56.328;43.992;2023-12-20T08:00:30;98752.88;;;2.60;82.69
69247;BME280;56358;56.328;43.992;2023-12-20T08:02:31;98741.19;;;2.51;82.26
69247;BME280;56358;56.328;43.992;2023-12-20T08:04:32;98747.50;;;2.61;82.19
69247;BME280;56358;56.328;43.992;2023-12-20T08:06:33;98761.22;;;2.66;82.30
69247;BME280;56358;56.328;43.992;2023-12-20T08:08:33;98713.69;;;2.41;82.16
69247;BME280;56358;56.328;43.992;2023-12-20T08:10:35;98772.66;;;2.67;82.38
69247;BME280;56358;56.328;43.992;2023-12-20T08:12:36;98759.31;;;2.68;82.10
69247;BME280;56358;56.328;43.992;2023-12-20T08:14:36;98762.31;;;2.64;82.26
69247;BME280;56358;56.328;43.992;2023-12-20T08:16:37;98714.25;;;2.33;82.05
69247;BME280;56358;56.328;43.992;2023-12-20T08:18:38;98767.50;;;2.65;81.98
69247;BME280;56358;56.328;43.992;2023-12-20T08:20:39;98770.97;;;2.66;82.02
69247;BME280;56358;56.328;43.992;2023-12-20T08:22:39;98766.41;;;2.68;81.91
69247;BME280;56358;56.328;43.992;2023-12-20T08:24:40;98771.41;;;2.60;81.87
69247;BME280;56358;56.328;43.992;2023-12-20T08:26:41;98771.59;;;2.70;81.88
69247;BME280;56358;56.328;43.992;2023-12-20T08:28:41;98790.66;;;2.62;81.54
69247;BME280;56358;56.328;43.992;2023-12-20T08:30:42;98786.59;;;2.69;80.97
69247;BME280;56358;56.328;43.992;2023-12-20T08:32:43;98752.16;;;2.58;81.00
69247;BME280;56358;56.328;43.992;2023-12-20T08:34:44;98667.28;;;1.99;80.76
69247;BME280;56358;56.328;43.992;2023-12-20T08:36:44;98787.66;;;2.66;80.93
69247;BME280;56358;56.328;43.992;2023-12-20T08:38:45;98783.97;;;2.69;81.17
69247;BME280;56358;56.328;43.992;2023-12-20T08:40:47;98772.25;;;2.60;81.27
69247;BME280;56358;56.328;43.992;2023-12-20T08:42:49;98783.00;;;2.70;80.96
69247;BME280;56358;56.328;43.992;2023-12-20T08:44:49;98656.09;;;1.96;81.12
69247;BME280;56358;56.328;43.992;2023-12-20T08:46:50;98770.72;;;2.69;81.34
69247;BME280;56358;56.328;43.992;2023-12-20T08:48:51;98779.41;;;2.71;81.38
69247;BME280;56358;56.328;43.992;2023-12-20T08:50:51;98776.78;;;2.71;81.62
69247;BME280;56358;56.328;43.992;2023-12-20T08:52:52;98761.69;;;2.60;81.47
69247;BME280;56358;56.328;43.992;2023-12-20T08:54:53;98774.84;;;2.73;81.38
69247;BME280;56358;56.328;43.992;2023-12-20T08:56:54;98776.66;;;2.73;81.46
69247;BME280;56358;56.328;43.992;2023-12-20T08:58:55;98715.22;;;2.32;81.66
69247;BME280;56358;56.328;43.992;2023-12-20T09:00:56;98778.34;;;2.74;81.37
69247;BME280;56358;56.328;43.992;2023-12-20T09:02:57;98772.53;;;2.68;81.59
69247;BME280;56358;56.328;43.992;2023-12-20T09:04:58;98764.09;;;2.63;81.60
69247;BME280;56358;56.328;43.992;2023-12-20T09:07:00;98783.13;;;2.68;81.85
69247;BME280;56358;56.328;43.992;2023-12-20T09:09:01;98772.19;;;2.73;81.67
69247;BME280;56358;56.328;43.992;2023-12-20T09:11:03;98780.13;;;2.73;81.83
69247;BME280;56358;56.328;43.992;2023-12-20T09:13:03;98776.34;;;2.77;81.89
69247;BME280;56358;56.328;43.992;2023-12-20T09:15:05;98785.34;;;2.75;81.55
69247;BME280;56358;56.328;43.992;2023-12-20T09:17:07;98779.81;;;2.78;81.64
69247;BME280;56358;56.328;43.992;2023-12-20T09:19:09;98777.41;;;2.75;81.87
69247;BME280;56358;56.328;43.992;2023-12-20T09:21:10;98765.84;;;2.76;81.76
69247;BME280;56358;56.328;43.992;2023-12-20T09:23:10;98776.00;;;2.82;81.43
69247;BME280;56358;56.328;43.992;2023-12-20T09:25:11;98767.09;;;2.83;81.83
69247;BME280;56358;56.328;43.992;2023-12-20T09:27:13;98772.28;;;2.84;81.56
69247;BME280;56358;56.328;43.992;2023-12-20T09:29:13;98776.81;;;2.82;81.83
69247;BME280;56358;56.328;43.992;2023-12-20T09:31:15;98782.97;;;2.83;82.11
69247;BME280;56358;56.328;43.992;2023-12-20T09:33:16;98778.41;;;2.85;82.00
69247;BME280;56358;56.328;43.992;2023-12-20T09:35:17;98783.81;;;2.83;81.81
69247;BME280;56358;56.328;43.992;2023-12-20T09:37:18;98721.47;;;2.55;82.10
69247;BME280;56358;56.328;43.992;2023-12-20T09:39:19;98792.25;;;2.89;81.94
69247;BME280;56358;56.328;43.992;2023-12-20T09:41:25;98769.00;;;2.81;81.95
69247;BME280;56358;56.328;43.992;2023-12-20T09:43:26;98776.38;;;2.89;82.04
69247;BME280;56358;56.328;43.992;2023-12-20T09:45:30;98787.72;;;2.91;82.29
69247;BME280;56358;56.328;43.992;2023-12-20T09:47:32;98773.84;;;2.87;82.23
69247;BME280;56358;56.328;43.992;2023-12-20T09:49:33;98797.31;;;2.92;81.98
69247;BME280;56358;56.328;43.992;2023-12-20T09:51:34;98790.25;;;2.92;82.61
69247;BME280;56358;56.328;43.992;2023-12-20T09:53:37;98797.44;;;2.90;82.80
69247;BME280;56358;56.328;43.992;2023-12-20T09:55:41;98789.97;;;2.84;83.57
69247;BME280;56358;56.328;43.992;2023-12-20T09:57:42;98792.50;;;2.85;83.57
69247;BME280;56358;56.328;43.992;2023-12-20T09:59:43;98781.50;;;2.79;83.76
69247;BME280;56358;56.328;43.992;2023-12-20T10:01:43;98785.00;;;2.79;84.16
69247;BME280;56358;56.328;43.992;2023-12-20T10:03:45;98798.50;;;2.88;84.41
69247;BME280;56358;56.328;43.992;2023-12-20T10:05:46;98795.16;;;2.85;84.45
69247;BME280;56358;56.328;43.992;2023-12-20T10:07:49;98731.25;;;2.42;84.90
69247;BME280;56358;56.328;43.992;2023-12-20T10:09:54;98791.50;;;2.87;84.86
69247;BME280;56358;56.328;43.992;2023-12-20T10:11:57;98730.91;;;2.46;84.85
69247;BME280;56358;56.328;43.992;2023-12-20T10:14:01;98760.06;;;2.71;85.04
69247;BME280;56358;56.328;43.992;2023-12-20T10:16:02;98765.25;;;2.72;85.42
69247;BME280;56358;56.328;43.992;2023-12-20T10:18:03;98763.16;;;2.64;85.28
69247;BME280;56358;56.328;43.992;2023-12-20T10:20:05;98788.38;;;2.81;85.15
69247;BME280;56358;56.328;43.992;2023-12-20T10:22:10;98796.72;;;2.88;85.06
69247;BME280;56358;56.328;43.992;2023-12-20T10:24:17;98808.97;;;2.89;84.96
69247;BME280;56358;56.328;43.992;2023-12-20T10:26:21;98786.97;;;2.89;84.98
69247;BME280;56358;56.328;43.992;2023-12-20T10:28:22;98810.16;;;2.85;84.45
69247;BME280;56358;56.328;43.992;2023-12-20T10:30:27;98798.63;;;2.86;84.79
69247;BME280;56358;56.328;43.992;2023-12-20T10:32:27;98795.88;;;2.88;84.61
69247;BME280;56358;56.328;43.992;2023-12-20T10:34:28;98696.78;;;2.30;84.71
69247;BME280;56358;56.328;43.992;2023-12-20T10:36:32;98803.91;;;2.86;84.69
69247;BME280;56358;56.328;43.992;2023-12-20T10:38:34;98784.75;;;2.82;84.56
69247;BME280;56358;56.328;43.992;2023-12-20T10:40:36;98801.16;;;2.88;84.23